sensor_id;sensor_type;location;lat;lon;timestamp;P1;durP1;ratioP1;P2;durP2;ratioP2
6825;SDS011;3451;52.476;13.316;2023-02-23T00:01:12;27.20;;;11.30;;
6825;SDS011;3451;52.476;13.316;2023-02-23T00:03:38;25.80;;;11.37;;
6825;SDS011;3451;52.476;13.316;2023-02-23T00:06:06;29.43;;;11.30;;
6825;SDS011;3451;52.476;13.316;2023-02-23T00:08:33;31.10;;;11.37;;
6825;SDS011;3451;52.476;13.316;2023-02-23T00:11:02;22.77;;;11.40;;
6825;SDS011;3451;52.476;13.316;2023-02-23T00:13:28;28.30;;;12.00;;
6825;SDS011;3451;52.476;13.316;2023-02-23T00:15:55;26.57;;;11.50;;
6825;SDS011;3451;52.476;13.316;2023-02-23T00:18:21;28.97;;;12.03;;
6825;SDS011;3451;52.476;13.316;2023-02-23T00:20:55;30.03;;;12.13;;
6825;SDS011;3451;52.476;13.316;2023-02-23T00:23:23;29.43;;;12.00;;
6825;SDS011;3451;52.476;13.316;2023-02-23T00:25:49;30.03;;;13.27;;
6825;SDS011;3451;52.476;13.316;2023-02-23T00:28:15;26.80;;;12.60;;
6825;SDS011;3451;52.476;13.316;2023-02-23T00:30:41;31.87;;;12.93;;
6825;SDS011;3451;52.476;13.316;2023-02-23T00:33:08;31.30;;;11.93;;
6825;SDS011;3451;52.476;13.316;2023-02-23T00:35:34;26.93;;;12.20;;
6825;SDS011;3451;52.476;13.316;2023-02-23T00:38:01;26.77;;;12.07;;
6825;SDS011;3451;52.476;13.316;2023-02-23T00:40:28;27.60;;;12.20;;
6825;SDS011;3451;52.476;13.316;2023-02-23T00:42:55;28.37;;;11.93;;
6825;SDS011;3451;52.476;13.316;2023-02-23T00:45:21;27.23;;;12.90;;
6825;SDS011;3451;52.476;13.316;2023-02-23T00:47:47;31.17;;;13.00;;
6825;SDS011;3451;52.476;13.316;2023-02-23T00:50:14;34.87;;;12.47;;
6825;SDS011;3451;52.476;13.316;2023-02-23T00:52:41;32.07;;;13.50;;
6825;SDS011;3451;52.476;13.316;2023-02-23T00:55:12;29.73;;;13.37;;
6825;SDS011;3451;52.476;13.316;2023-02-23T00:57:38;40.03;;;13.53;;
6825;SDS011;3451;52.476;13.316;2023-02-23T01:00:05;32.67;;;13.73;;
6825;SDS011;3451;52.476;13.316;2023-02-23T01:02:41;31.03;;;13.30;;
6825;SDS011;3451;52.476;13.316;2023-02-23T01:05:08;26.90;;;12.67;;
6825;SDS011;3451;52.476;13.316;2023-02-23T01:07:35;30.70;;;13.23;;
6825;SDS011;3451;52.476;13.316;2023-02-23T01:10:01;30.63;;;13.03;;
6825;SDS011;3451;52.476;13.316;2023-02-23T01:12:28;28.30;;;13.40;;
6825;SDS011;3451;52.476;13.316;2023-02-23T01:14:55;33.20;;;14.40;;
6825;SDS011;3451;52.476;13.316;2023-02-23T01:17:22;27.60;;;13.50;;
6825;SDS011;3451;52.476;13.316;2023-02-23T01:19:48;28.93;;;12.77;;
6825;SDS011;3451;52.476;13.316;2023-02-23T01:22:14;28.60;;;13.93;;
6825;SDS011;3451;52.476;13.316;2023-02-23T01:24:40;39.23;;;15.07;;
6825;SDS011;3451;52.476;13.316;2023-02-23T01:27:07;34.13;;;14.47;;
6825;SDS011;3451;52.476;13.316;2023-02-23T01:29:34;31.67;;;14.53;;
6825;SDS011;3451;52.476;13.316;2023-02-23T01:32:00;33.27;;;14.67;;
6825;SDS011;3451;52.476;13.316;2023-02-23T01:34:29;31.27;;;14.33;;
6825;SDS011;3451;52.476;13.316;2023-02-23T01:36:56;26.00;;;13.23;;
6825;SDS011;3451;52.476;13.316;2023-02-23T01:39:23;30.90;;;14.03;;
6825;SDS011;3451;52.476;13.316;2023-02-23T01:41:49;32.40;;;14.63;;
6825;SDS011;3451;52.476;13.316;2023-02-23T01:46:44;32.73;;;14.30;;
6825;SDS011;3451;52.476;13.316;2023-02-23T01:49:12;29.23;;;13.53;;
6825;SDS011;3451;52.476;13.316;2023-02-23T01:51:42;32.97;;;14.40;;
6825;SDS011;3451;52.476;13.316;2023-02-23T01:56:39;32.57;;;14.83;;
6825;SDS011;3451;52.476;13.316;2023-02-23T01:59:11;27.10;;;13.73;;
6825;SDS011;3451;52.476;13.316;2023-02-23T02:01:38;37.73;;;15.37;;
6825;SDS011;3451;52.476;13.316;2023-02-23T02:04:06;30.60;;;14.13;;
6825;SDS011;3451;52.476;13.316;2023-02-23T02:06:34;34.17;;;14.77;;
6825;SDS011;3451;52.476;13.316;2023-02-23T02:09:03;34.27;;;15.27;;
6825;SDS011;3451;52.476;13.316;2023-02-23T02:11:33;41.53;;;14.23;;
6825;SDS011;3451;52.476;13.316;2023-02-23T02:14:14;27.07;;;13.67;;
6825;SDS011;3451;52.476;13.316;2023-02-23T02:16:46;33.50;;;14.93;;
6825;SDS011;3451;52.476;13.316;2023-02-23T02:22:03;32.07;;;14.53;;
6825;SDS011;3451;52.476;13.316;2023-02-23T02:24:44;32.87;;;14.47;;
6825;SDS011;3451;52.476;13.316;2023-02-23T02:27:20;34.73;;;14.93;;
6825;SDS011;3451;52.476;13.316;2023-02-23T02:32:44;29.90;;;14.67;;
6825;SDS011;3451;52.476;13.316;2023-02-23T02:35:23;34.37;;;14.70;;
6825;SDS011;3451;52.476;13.316;2023-02-23T02:43:21;32.50;;;14.73;;
6825;SDS011;3451;52.476;13.316;2023-02-23T02:46:02;34.33;;;15.07;;
6825;SDS011;3451;52.476;13.316;2023-02-23T02:48:32;33.20;;;15.03;;
6825;SDS011;3451;52.476;13.316;2023-02-23T02:53:58;35.93;;;14.37;;
6825;SDS011;3451;52.476;13.316;2023-02-23T02:56:32;37.77;;;15.47;;
6825;SDS011;3451;52.476;13.316;2023-02-23T02:59:01;33.73;;;14.50;;
6825;SDS011;3451;52.476;13.316;2023-02-23T03:01:28;32.20;;;15.17;;
6825;SDS011;3451;52.476;13.316;2023-02-23T03:04:23;36.27;;;16.27;;
6825;SDS011;3451;52.476;13.316;2023-02-23T03:07:23;33.83;;;15.27;;
6825;SDS011;3451;52.476;13.316;2023-02-23T03:10:13;29.73;;;14.43;;
6825;SDS011;3451;52.476;13.316;2023-02-23T03:16:14;28.73;;;14.60;;
6825;SDS011;3451;52.476;13.316;2023-02-23T03:19:06;38.83;;;15.40;;
6825;SDS011;3451;52.476;13.316;2023-02-23T03:22:41;36.73;;;15.17;;
6825;SDS011;3451;52.476;13.316;2023-02-23T03:25:14;33.87;;;15.67;;
6825;SDS011;3451;52.476;13.316;2023-02-23T03:28:09;29.70;;;15.20;;
6825;SDS011;3451;52.476;13.316;2023-02-23T03:33:43;35.13;;;15.83;;
6825;SDS011;3451;52.476;13.316;2023-02-23T03:36:31;34.03;;;15.10;;
6825;SDS011;3451;52.476;13.316;2023-02-23T03:39:20;37.63;;;16.40;;
6825;SDS011;3451;52.476;13.316;2023-02-23T03:42:07;35.63;;;15.23;;
6825;SDS011;3451;52.476;13.316;2023-02-23T03:44:53;37.43;;;15.47;;
6825;SDS011;3451;52.476;13.316;2023-02-23T03:47:39;34.83;;;15.63;;
6825;SDS011;3451;52.476;13.316;2023-02-23T03:50:32;33.83;;;16.03;;
6825;SDS011;3451;52.476;13.316;2023-02-23T03:53:20;36.90;;;17.50;;
6825;SDS011;3451;52.476;13.316;2023-02-23T03:56:08;33.57;;;16.83;;
6825;SDS011;3451;52.476;13.316;2023-02-23T03:58:55;36.90;;;16.07;;
6825;SDS011;3451;52.476;13.316;2023-02-23T04:01:42;31.00;;;15.83;;
6825;SDS011;3451;52.476;13.316;2023-02-23T04:04:27;33.33;;;16.50;;
6825;SDS011;3451;52.476;13.316;2023-02-23T04:07:13;35.83;;;16.10;;
6825;SDS011;3451;52.476;13.316;2023-02-23T04:09:59;38.67;;;15.50;;
6825;SDS011;3451;52.476;13.316;2023-02-23T04:15:46;40.90;;;16.57;;
6825;SDS011;3451;52.476;13.316;2023-02-23T04:18:14;36.40;;;17.30;;
6825;SDS011;3451;52.476;13.316;2023-02-23T04:20:41;35.87;;;16.70;;
6825;SDS011;3451;52.476;13.316;2023-02-23T04:23:07;35.63;;;17.57;;
6825;SDS011;3451;52.476;13.316;2023-02-23T04:25:33;34.40;;;16.93;;
6825;SDS011;3451;52.476;13.316;2023-02-23T04:28:00;36.67;;;18.67;;
6825;SDS011;3451;52.476;13.316;2023-02-23T04:30:26;43.23;;;16.90;;
6825;SDS011;3451;52.476;13.316;2023-02-23T04:32:54;35.60;;;16.10;;
6825;SDS011;3451;52.476;13.316;2023-02-23T04:35:20;40.13;;;18.27;;
6825;SDS011;3451;52.476;13.316;2023-02-23T04:37:47;35.87;;;17.37;;
6825;SDS011;3451;52.476;13.316;2023-02-23T04:40:13;36.57;;;17.33;;
6825;SDS011;3451;52.476;13.316;2023-02-23T04:42:39;35.07;;;16.70;;
6825;SDS011;3451;52.476;13.316;2023-02-23T04:45:06;39.73;;;17.67;;
6825;SDS011;3451;52.476;13.316;2023-02-23T04:47:33;39.47;;;17.87;;
6825;SDS011;3451;52.476;13.316;2023-02-23T04:49:59;35.87;;;16.60;;
6825;SDS011;3451;52.476;13.316;2023-02-23T04:52:25;34.70;;;17.30;;
6825;SDS011;3451;52.476;13.316;2023-02-23T04:54:51;38.57;;;16.70;;
6825;SDS011;3451;52.476;13.316;2023-02-23T04:57:18;38.53;;;16.37;;
6825;SDS011;3451;52.476;13.316;2023-02-23T04:59:44;39.83;;;17.57;;
6825;SDS011;3451;52.476;13.316;2023-02-23T05:02:10;40.33;;;17.07;;
6825;SDS011;3451;52.476;13.316;2023-02-23T05:04:37;39.00;;;16.83;;
6825;SDS011;3451;52.476;13.316;2023-02-23T05:07:03;34.97;;;17.50;;
6825;SDS011;3451;52.476;13.316;2023-02-23T05:09:30;33.57;;;17.23;;
6825;SDS011;3451;52.476;13.316;2023-02-23T05:11:56;39.57;;;16.93;;
6825;SDS011;3451;52.476;13.316;2023-02-23T05:14:22;43.10;;;17.03;;
6825;SDS011;3451;52.476;13.316;2023-02-23T05:16:49;39.77;;;17.87;;
6825;SDS011;3451;52.476;13.316;2023-02-23T05:19:16;33.17;;;16.03;;
6825;SDS011;3451;52.476;13.316;2023-02-23T05:21:42;32.57;;;16.87;;
6825;SDS011;3451;52.476;13.316;2023-02-23T05:24:09;33.43;;;17.40;;
6825;SDS011;3451;52.476;13.316;2023-02-23T05:26:35;38.47;;;17.27;;
6825;SDS011;3451;52.476;13.316;2023-02-23T05:29:02;39.43;;;17.17;;
6825;SDS011;3451;52.476;13.316;2023-02-23T05:31:28;32.97;;;17.17;;
6825;SDS011;3451;52.476;13.316;2023-02-23T05:33:54;33.03;;;17.33;;
6825;SDS011;3451;52.476;13.316;2023-02-23T05:36:21;32.00;;;15.93;;
6825;SDS011;3451;52.476;13.316;2023-02-23T05:38:47;36.00;;;17.23;;
6825;SDS011;3451;52.476;13.316;2023-02-23T05:41:15;35.63;;;16.77;;
6825;SDS011;3451;52.476;13.316;2023-02-23T05:43:42;42.70;;;17.77;;
6825;SDS011;3451;52.476;13.316;2023-02-23T05:46:10;37.70;;;17.27;;
6825;SDS011;3451;52.476;13.316;2023-02-23T05:48:37;40.27;;;17.20;;
6825;SDS011;3451;52.476;13.316;2023-02-23T05:51:04;38.63;;;17.03;;
6825;SDS011;3451;52.476;13.316;2023-02-23T05:53:31;41.30;;;17.70;;
6825;SDS011;3451;52.476;13.316;2023-02-23T05:55:57;40.17;;;17.90;;
6825;SDS011;3451;52.476;13.316;2023-02-23T05:58:23;33.93;;;16.60;;
6825;SDS011;3451;52.476;13.316;2023-02-23T06:00:50;37.10;;;16.77;;
6825;SDS011;3451;52.476;13.316;2023-02-23T06:03:16;40.53;;;17.27;;
6825;SDS011;3451;52.476;13.316;2023-02-23T06:05:50;40.97;;;16.40;;
6825;SDS011;3451;52.476;13.316;2023-02-23T06:08:17;35.50;;;16.73;;
6825;SDS011;3451;52.476;13.316;2023-02-23T06:10:43;38.30;;;16.90;;
6825;SDS011;3451;52.476;13.316;2023-02-23T06:13:09;37.37;;;18.30;;
6825;SDS011;3451;52.476;13.316;2023-02-23T06:15:36;38.13;;;17.73;;
6825;SDS011;3451;52.476;13.316;2023-02-23T06:18:02;36.80;;;16.77;;
6825;SDS011;3451;52.476;13.316;2023-02-23T06:20:29;38.20;;;16.67;;
6825;SDS011;3451;52.476;13.316;2023-02-23T06:22:55;33.50;;;16.47;;
6825;SDS011;3451;52.476;13.316;2023-02-23T06:25:22;35.13;;;16.67;;
6825;SDS011;3451;52.476;13.316;2023-02-23T06:27:49;38.73;;;16.73;;
6825;SDS011;3451;52.476;13.316;2023-02-23T06:30:15;38.83;;;17.83;;
6825;SDS011;3451;52.476;13.316;2023-02-23T06:32:41;35.70;;;16.67;;
6825;SDS011;3451;52.476;13.316;2023-02-23T06:35:08;31.53;;;16.43;;
6825;SDS011;3451;52.476;13.316;2023-02-23T06:37:34;37.53;;;17.17;;
6825;SDS011;3451;52.476;13.316;2023-02-23T06:40:02;38.67;;;16.83;;
6825;SDS011;3451;52.476;13.316;2023-02-23T06:42:28;38.53;;;17.30;;
6825;SDS011;3451;52.476;13.316;2023-02-23T06:44:55;36.27;;;17.33;;
6825;SDS011;3451;52.476;13.316;2023-02-23T06:47:21;32.83;;;17.17;;
6825;SDS011;3451;52.476;13.316;2023-02-23T06:49:47;35.40;;;17.20;;
6825;SDS011;3451;52.476;13.316;2023-02-23T06:52:14;36.50;;;17.80;;
6825;SDS011;3451;52.476;13.316;2023-02-23T06:54:40;38.40;;;16.77;;
6825;SDS011;3451;52.476;13.316;2023-02-23T06:57:07;42.30;;;18.50;;
6825;SDS011;3451;52.476;13.316;2023-02-23T06:59:34;45.33;;;17.80;;
6825;SDS011;3451;52.476;13.316;2023-02-23T07:02:02;34.37;;;17.40;;
6825;SDS011;3451;52.476;13.316;2023-02-23T07:04:31;37.57;;;17.13;;
6825;SDS011;3451;52.476;13.316;2023-02-23T07:06:57;40.80;;;17.67;;
6825;SDS011;3451;52.476;13.316;2023-02-23T07:09:24;36.10;;;17.20;;
6825;SDS011;3451;52.476;13.316;2023-02-23T07:11:50;36.57;;;16.43;;
6825;SDS011;3451;52.476;13.316;2023-02-23T07:14:16;39.17;;;16.73;;
6825;SDS011;3451;52.476;13.316;2023-02-23T07:16:51;34.33;;;17.10;;
6825;SDS011;3451;52.476;13.316;2023-02-23T07:19:18;39.37;;;17.50;;
6825;SDS011;3451;52.476;13.316;2023-02-23T07:21:44;43.13;;;17.27;;
6825;SDS011;3451;52.476;13.316;2023-02-23T07:24:10;38.57;;;17.53;;
6825;SDS011;3451;52.476;13.316;2023-02-23T07:26:36;37.47;;;17.20;;
6825;SDS011;3451;52.476;13.316;2023-02-23T07:29:02;33.67;;;16.97;;
6825;SDS011;3451;52.476;13.316;2023-02-23T07:31:29;37.03;;;16.80;;
6825;SDS011;3451;52.476;13.316;2023-02-23T07:33:55;40.03;;;16.97;;
6825;SDS011;3451;52.476;13.316;2023-02-23T07:36:22;35.70;;;17.93;;
6825;SDS011;3451;52.476;13.316;2023-02-23T07:38:49;36.70;;;16.63;;
6825;SDS011;3451;52.476;13.316;2023-02-23T07:41:15;36.73;;;16.87;;
6825;SDS011;3451;52.476;13.316;2023-02-23T07:43:41;35.53;;;16.30;;
6825;SDS011;3451;52.476;13.316;2023-02-23T07:46:08;37.80;;;17.50;;
6825;SDS011;3451;52.476;13.316;2023-02-23T07:48:34;33.23;;;16.23;;
6825;SDS011;3451;52.476;13.316;2023-02-23T07:51:00;37.90;;;18.00;;
6825;SDS011;3451;52.476;13.316;2023-02-23T07:53:26;37.10;;;17.30;;
6825;SDS011;3451;52.476;13.316;2023-02-23T07:55:56;38.33;;;16.50;;
6825;SDS011;3451;52.476;13.316;2023-02-23T07:58:23;38.80;;;18.00;;
6825;SDS011;3451;52.476;13.316;2023-02-23T08:00:49;37.17;;;16.67;;
6825;SDS011;3451;52.476;13.316;2023-02-23T08:03:15;37.03;;;17.17;;
6825;SDS011;3451;52.476;13.316;2023-02-23T08:05:42;39.33;;;16.87;;
6825;SDS011;3451;52.476;13.316;2023-02-23T08:08:10;42.60;;;17.93;;
6825;SDS011;3451;52.476;13.316;2023-02-23T08:10:36;36.13;;;17.30;;
6825;SDS011;3451;52.476;13.316;2023-02-23T08:13:03;38.70;;;16.87;;
6825;SDS011;3451;52.476;13.316;2023-02-23T08:15:29;36.77;;;17.03;;
6825;SDS011;3451;52.476;13.316;2023-02-23T08:17:56;37.10;;;17.93;;
6825;SDS011;3451;52.476;13.316;2023-02-23T08:20:23;33.93;;;16.10;;
6825;SDS011;3451;52.476;13.316;2023-02-23T08:22:53;35.63;;;16.67;;
6825;SDS011;3451;52.476;13.316;2023-02-23T08:25:19;35.87;;;16.63;;
6825;SDS011;3451;52.476;13.316;2023-02-23T08:27:45;44.13;;;17.47;;
6825;SDS011;3451;52.476;13.316;2023-02-23T08:30:12;42.23;;;17.13;;
6825;SDS011;3451;52.476;13.316;2023-02-23T08:32:39;36.20;;;16.50;;
6825;SDS011;3451;52.476;13.316;2023-02-23T08:35:05;34.27;;;17.33;;
6825;SDS011;3451;52.476;13.316;2023-02-23T08:37:32;35.03;;;17.27;;
6825;SDS011;3451;52.476;13.316;2023-02-23T08:39:59;35.77;;;18.17;;
6825;SDS011;3451;52.476;13.316;2023-02-23T08:42:26;36.77;;;17.30;;
6825;SDS011;3451;52.476;13.316;2023-02-23T08:44:53;34.77;;;16.17;;
6825;SDS011;3451;52.476;13.316;2023-02-23T08:47:19;36.87;;;17.13;;
6825;SDS011;3451;52.476;13.316;2023-02-23T08:49:47;32.67;;;17.13;;
6825;SDS011;3451;52.476;13.316;2023-02-23T08:52:13;38.03;;;17.17;;
6825;SDS011;3451;52.476;13.316;2023-02-23T08:54:39;36.63;;;17.57;;
6825;SDS011;3451;52.476;13.316;2023-02-23T08:57:05;34.87;;;16.70;;
6825;SDS011;3451;52.476;13.316;2023-02-23T08:59:32;35.83;;;16.70;;
6825;SDS011;3451;52.476;13.316;2023-02-23T09:01:58;37.43;;;16.90;;
6825;SDS011;3451;52.476;13.316;2023-02-23T09:04:25;39.47;;;17.30;;
6825;SDS011;3451;52.476;13.316;2023-02-23T09:06:51;39.17;;;17.13;;
6825;SDS011;3451;52.476;13.316;2023-02-23T09:09:17;33.60;;;17.47;;
6825;SDS011;3451;52.476;13.316;2023-02-23T09:11:43;35.67;;;17.10;;
6825;SDS011;3451;52.476;13.316;2023-02-23T09:14:10;32.37;;;16.40;;
6825;SDS011;3451;52.476;13.316;2023-02-23T09:16:36;34.70;;;17.33;;
6825;SDS011;3451;52.476;13.316;2023-02-23T09:19:02;37.17;;;16.60;;
6825;SDS011;3451;52.476;13.316;2023-02-23T09:21:28;33.20;;;15.57;;
6825;SDS011;3451;52.476;13.316;2023-02-23T09:23:55;35.33;;;16.77;;
6825;SDS011;3451;52.476;13.316;2023-02-23T09:26:22;31.47;;;16.17;;
6825;SDS011;3451;52.476;13.316;2023-02-23T09:28:49;31.73;;;17.30;;
6825;SDS011;3451;52.476;13.316;2023-02-23T09:31:17;35.87;;;16.33;;
6825;SDS011;3451;52.476;13.316;2023-02-23T09:33:44;32.43;;;16.80;;
6825;SDS011;3451;52.476;13.316;2023-02-23T09:36:11;37.87;;;17.67;;
6825;SDS011;3451;52.476;13.316;2023-02-23T09:38:42;32.83;;;16.43;;
6825;SDS011;3451;52.476;13.316;2023-02-23T09:41:21;33.60;;;16.40;;
6825;SDS011;3451;52.476;13.316;2023-02-23T09:43:58;34.73;;;16.97;;
6825;SDS011;3451;52.476;13.316;2023-02-23T09:46:35;30.47;;;16.40;;
6825;SDS011;3451;52.476;13.316;2023-02-23T09:49:08;35.87;;;16.83;;
6825;SDS011;3451;52.476;13.316;2023-02-23T09:51:38;31.10;;;16.27;;
6825;SDS011;3451;52.476;13.316;2023-02-23T09:54:05;31.50;;;16.60;;
6825;SDS011;3451;52.476;13.316;2023-02-23T09:56:36;32.53;;;16.00;;
6825;SDS011;3451;52.476;13.316;2023-02-23T09:59:03;33.13;;;16.97;;
6825;SDS011;3451;52.476;13.316;2023-02-23T10:04:51;34.30;;;16.30;;
6825;SDS011;3451;52.476;13.316;2023-02-23T10:10:02;32.73;;;16.23;;
6825;SDS011;3451;52.476;13.316;2023-02-23T10:15:14;29.00;;;16.90;;
6825;SDS011;3451;52.476;13.316;2023-02-23T10:20:18;32.43;;;16.30;;
6825;SDS011;3451;52.476;13.316;2023-02-23T10:22:45;32.00;;;16.47;;
6825;SDS011;3451;52.476;13.316;2023-02-23T10:25:14;26.87;;;16.43;;
6825;SDS011;3451;52.476;13.316;2023-02-23T10:27:44;30.07;;;16.43;;
6825;SDS011;3451;52.476;13.316;2023-02-23T10:30:14;32.13;;;17.60;;
6825;SDS011;3451;52.476;13.316;2023-02-23T10:35:26;33.33;;;18.07;;
6825;SDS011;3451;52.476;13.316;2023-02-23T10:37:53;29.17;;;16.30;;
6825;SDS011;3451;52.476;13.316;2023-02-23T10:40:24;29.63;;;16.70;;
6825;SDS011;3451;52.476;13.316;2023-02-23T10:42:56;32.67;;;17.43;;
6825;SDS011;3451;52.476;13.316;2023-02-23T10:45:23;29.40;;;16.90;;
6825;SDS011;3451;52.476;13.316;2023-02-23T10:47:52;31.57;;;17.60;;
6825;SDS011;3451;52.476;13.316;2023-02-23T10:50:19;29.57;;;16.80;;
6825;SDS011;3451;52.476;13.316;2023-02-23T10:52:48;33.27;;;17.33;;
6825;SDS011;3451;52.476;13.316;2023-02-23T10:55:20;35.57;;;18.17;;
6825;SDS011;3451;52.476;13.316;2023-02-23T10:57:51;33.27;;;17.67;;
6825;SDS011;3451;52.476;13.316;2023-02-23T11:00:27;28.60;;;16.13;;
6825;SDS011;3451;52.476;13.316;2023-02-23T11:02:58;33.33;;;17.60;;
6825;SDS011;3451;52.476;13.316;2023-02-23T11:05:32;33.97;;;18.37;;
6825;SDS011;3451;52.476;13.316;2023-02-23T11:08:09;34.30;;;17.13;;
6825;SDS011;3451;52.476;13.316;2023-02-23T11:10:35;30.13;;;17.73;;
6825;SDS011;3451;52.476;13.316;2023-02-23T11:13:01;31.50;;;17.43;;
6825;SDS011;3451;52.476;13.316;2023-02-23T11:15:29;27.03;;;16.67;;
6825;SDS011;3451;52.476;13.316;2023-02-23T11:18:18;31.50;;;17.90;;
6825;SDS011;3451;52.476;13.316;2023-02-23T11:20:45;33.43;;;18.33;;
6825;SDS011;3451;52.476;13.316;2023-02-23T11:23:23;30.93;;;17.33;;
6825;SDS011;3451;52.476;13.316;2023-02-23T11:25:58;25.43;;;16.47;;
6825;SDS011;3451;52.476;13.316;2023-02-23T11:28:35;29.47;;;17.00;;
6825;SDS011;3451;52.476;13.316;2023-02-23T11:31:12;28.77;;;16.97;;
6825;SDS011;3451;52.476;13.316;2023-02-23T11:33:40;29.63;;;17.57;;
6825;SDS011;3451;52.476;13.316;2023-02-23T11:36:17;29.30;;;17.67;;
6825;SDS011;3451;52.476;13.316;2023-02-23T11:39:00;27.40;;;16.60;;
6825;SDS011;3451;52.476;13.316;2023-02-23T11:41:27;29.43;;;17.33;;
6825;SDS011;3451;52.476;13.316;2023-02-23T11:43:57;29.07;;;16.93;;
6825;SDS011;3451;52.476;13.316;2023-02-23T11:46:24;28.47;;;16.07;;
6825;SDS011;3451;52.476;13.316;2023-02-23T11:49:08;29.63;;;16.83;;
6825;SDS011;3451;52.476;13.316;2023-02-23T11:51:39;28.10;;;16.57;;
6825;SDS011;3451;52.476;13.316;2023-02-23T11:54:06;34.17;;;18.40;;
6825;SDS011;3451;52.476;13.316;2023-02-23T11:56:35;30.63;;;18.03;;
6825;SDS011;3451;52.476;13.316;2023-02-23T11:59:03;32.80;;;18.97;;
6825;SDS011;3451;52.476;13.316;2023-02-23T12:01:39;31.80;;;18.83;;
6825;SDS011;3451;52.476;13.316;2023-02-23T12:04:10;33.23;;;17.57;;
6825;SDS011;3451;52.476;13.316;2023-02-23T12:06:51;29.37;;;17.33;;
6825;SDS011;3451;52.476;13.316;2023-02-23T12:09:27;29.43;;;18.17;;
6825;SDS011;3451;52.476;13.316;2023-02-23T12:14:23;29.50;;;18.63;;
6825;SDS011;3451;52.476;13.316;2023-02-23T12:16:52;32.50;;;18.73;;
6825;SDS011;3451;52.476;13.316;2023-02-23T12:19:23;30.73;;;18.60;;
6825;SDS011;3451;52.476;13.316;2023-02-23T12:22:01;30.70;;;18.93;;
6825;SDS011;3451;52.476;13.316;2023-02-23T12:35:59;28.93;;;17.87;;
6825;SDS011;3451;52.476;13.316;2023-02-23T12:38:04;28.17;;;18.37;;
6825;SDS011;3451;52.476;13.316;2023-02-23T12:40:35;31.20;;;18.23;;
6825;SDS011;3451;52.476;13.316;2023-02-23T12:43:11;31.60;;;19.00;;
6825;SDS011;3451;52.476;13.316;2023-02-23T12:45:41;29.67;;;18.00;;
6825;SDS011;3451;52.476;13.316;2023-02-23T12:48:13;35.70;;;19.17;;
6825;SDS011;3451;52.476;13.316;2023-02-23T12:50:47;32.20;;;19.90;;
6825;SDS011;3451;52.476;13.316;2023-02-23T12:53:24;28.83;;;18.30;;
6825;SDS011;3451;52.476;13.316;2023-02-23T13:00:58;30.83;;;18.43;;
6825;SDS011;3451;52.476;13.316;2023-02-23T13:03:32;33.93;;;19.83;;
6825;SDS011;3451;52.476;13.316;2023-02-23T13:08:55;32.40;;;19.00;;
6825;SDS011;3451;52.476;13.316;2023-02-23T13:14:11;32.70;;;18.50;;
6825;SDS011;3451;52.476;13.316;2023-02-23T13:16:41;32.97;;;19.00;;
6825;SDS011;3451;52.476;13.316;2023-02-23T13:24:05;33.47;;;18.80;;
6825;SDS011;3451;52.476;13.316;2023-02-23T13:29:12;35.00;;;20.57;;
6825;SDS011;3451;52.476;13.316;2023-02-23T13:31:43;31.40;;;19.67;;
6825;SDS011;3451;52.476;13.316;2023-02-23T13:34:20;28.80;;;18.67;;
6825;SDS011;3451;52.476;13.316;2023-02-23T13:36:48;31.77;;;19.23;;
6825;SDS011;3451;52.476;13.316;2023-02-23T13:41:47;34.63;;;18.83;;
6825;SDS011;3451;52.476;13.316;2023-02-23T13:44:20;30.33;;;18.30;;
6825;SDS011;3451;52.476;13.316;2023-02-23T13:49:25;32.43;;;19.87;;
6825;SDS011;3451;52.476;13.316;2023-02-23T13:52:07;29.67;;;19.57;;
6825;SDS011;3451;52.476;13.316;2023-02-23T13:54:34;30.23;;;19.20;;
6825;SDS011;3451;52.476;13.316;2023-02-23T13:57:02;29.50;;;18.73;;
6825;SDS011;3451;52.476;13.316;2023-02-23T13:59:36;32.13;;;19.07;;
6825;SDS011;3451;52.476;13.316;2023-02-23T14:04:49;29.83;;;19.50;;
6825;SDS011;3451;52.476;13.316;2023-02-23T14:07:17;29.97;;;18.53;;
6825;SDS011;3451;52.476;13.316;2023-02-23T14:12:32;31.77;;;20.43;;
6825;SDS011;3451;52.476;13.316;2023-02-23T14:17:54;34.30;;;23.27;;
6825;SDS011;3451;52.476;13.316;2023-02-23T14:28:23;41.70;;;25.50;;
6825;SDS011;3451;52.476;13.316;2023-02-23T14:30:58;37.70;;;25.00;;
6825;SDS011;3451;52.476;13.316;2023-02-23T14:33:35;42.50;;;25.80;;
6825;SDS011;3451;52.476;13.316;2023-02-23T14:43:53;39.90;;;26.63;;
6825;SDS011;3451;52.476;13.316;2023-02-23T14:46:20;39.33;;;24.67;;
6825;SDS011;3451;52.476;13.316;2023-02-23T14:48:55;41.17;;;24.93;;
6825;SDS011;3451;52.476;13.316;2023-02-23T14:51:32;43.73;;;25.57;;
6825;SDS011;3451;52.476;13.316;2023-02-23T14:53:59;41.80;;;24.90;;
6825;SDS011;3451;52.476;13.316;2023-02-23T14:56:25;42.83;;;24.63;;
6825;SDS011;3451;52.476;13.316;2023-02-23T14:59:13;50.23;;;27.23;;
6825;SDS011;3451;52.476;13.316;2023-02-23T15:01:42;47.93;;;27.67;;
6825;SDS011;3451;52.476;13.316;2023-02-23T15:04:10;46.37;;;26.63;;
6825;SDS011;3451;52.476;13.316;2023-02-23T15:06:37;47.53;;;28.90;;
6825;SDS011;3451;52.476;13.316;2023-02-23T15:09:07;46.93;;;27.70;;
6825;SDS011;3451;52.476;13.316;2023-02-23T15:11:33;48.33;;;28.50;;
6825;SDS011;3451;52.476;13.316;2023-02-23T15:14:02;50.10;;;28.43;;
6825;SDS011;3451;52.476;13.316;2023-02-23T15:16:29;47.07;;;28.83;;
6825;SDS011;3451;52.476;13.316;2023-02-23T15:21:55;50.57;;;29.23;;
6825;SDS011;3451;52.476;13.316;2023-02-23T15:24:23;50.13;;;30.37;;
6825;SDS011;3451;52.476;13.316;2023-02-23T15:26:50;51.10;;;29.37;;
6825;SDS011;3451;52.476;13.316;2023-02-23T15:29:21;46.73;;;28.47;;
6825;SDS011;3451;52.476;13.316;2023-02-23T15:31:52;49.57;;;28.30;;
6825;SDS011;3451;52.476;13.316;2023-02-23T15:36:56;46.57;;;28.40;;
6825;SDS011;3451;52.476;13.316;2023-02-23T15:39:41;47.17;;;27.57;;
6825;SDS011;3451;52.476;13.316;2023-02-23T15:42:12;46.77;;;27.63;;
6825;SDS011;3451;52.476;13.316;2023-02-23T15:44:38;49.47;;;28.30;;
6825;SDS011;3451;52.476;13.316;2023-02-23T15:47:18;47.57;;;29.27;;
6825;SDS011;3451;52.476;13.316;2023-02-23T15:49:45;48.33;;;28.07;;
6825;SDS011;3451;52.476;13.316;2023-02-23T15:52:15;44.83;;;28.23;;
6825;SDS011;3451;52.476;13.316;2023-02-23T15:57:16;50.87;;;30.20;;
6825;SDS011;3451;52.476;13.316;2023-02-23T15:59:44;54.13;;;30.47;;
6825;SDS011;3451;52.476;13.316;2023-02-23T16:02:12;51.83;;;30.23;;
6825;SDS011;3451;52.476;13.316;2023-02-23T16:04:39;54.73;;;30.70;;
6825;SDS011;3451;52.476;13.316;2023-02-23T16:07:22;53.70;;;29.67;;
6825;SDS011;3451;52.476;13.316;2023-02-23T16:12:28;52.97;;;31.27;;
6825;SDS011;3451;52.476;13.316;2023-02-23T16:17:57;56.77;;;32.57;;
6825;SDS011;3451;52.476;13.316;2023-02-23T16:20:18;55.57;;;31.10;;
6825;SDS011;3451;52.476;13.316;2023-02-23T16:22:47;57.20;;;32.70;;
6825;SDS011;3451;52.476;13.316;2023-02-23T16:25:18;60.67;;;33.83;;
6825;SDS011;3451;52.476;13.316;2023-02-23T16:27:46;61.37;;;33.93;;
6825;SDS011;3451;52.476;13.316;2023-02-23T16:30:27;58.27;;;34.30;;
6825;SDS011;3451;52.476;13.316;2023-02-23T16:33:03;63.77;;;34.67;;
6825;SDS011;3451;52.476;13.316;2023-02-23T16:35:43;61.40;;;34.67;;
6825;SDS011;3451;52.476;13.316;2023-02-23T16:38:12;63.77;;;34.80;;
6825;SDS011;3451;52.476;13.316;2023-02-23T16:40:39;65.37;;;35.97;;
6825;SDS011;3451;52.476;13.316;2023-02-23T16:43:06;64.47;;;35.80;;
6825;SDS011;3451;52.476;13.316;2023-02-23T16:45:32;66.23;;;35.53;;
6825;SDS011;3451;52.476;13.316;2023-02-23T16:47:58;68.47;;;35.80;;